createdAt,value
2023-05-12T00:01:19.967Z,22.00
2023-05-12T00:03:48.287Z,22.00
2023-05-12T00:06:16.654Z,22.00
2023-05-12T00:08:46.137Z,22.00
2023-05-12T00:11:14.382Z,22.00
2023-05-12T00:13:42.662Z,22.00
2023-05-12T00:16:10.933Z,22.00
2023-05-12T00:18:39.199Z,22.00
2023-05-12T00:21:08.694Z,22.00
2023-05-12T00:23:38.736Z,22.00
2023-05-12T00:26:08.493Z,21.90
2023-05-12T00:28:36.653Z,21.90
2023-05-12T00:31:05.514Z,21.90
2023-05-12T00:33:33.769Z,21.90
2023-05-12T00:36:03.580Z,21.90
2023-05-12T00:38:31.766Z,21.90
2023-05-12T00:40:59.862Z,21.80
2023-05-12T00:43:29.346Z,21.80
2023-05-12T00:45:58.340Z,21.80
2023-05-12T00:48:26.659Z,21.80
2023-05-12T00:50:55.755Z,21.80
2023-05-12T00:53:24.524Z,21.80
2023-05-12T00:55:53.677Z,21.80
2023-05-12T00:58:21.827Z,21.80
2023-05-12T01:00:51.384Z,21.80
2023-05-12T01:03:20.094Z,21.70
2023-05-12T01:05:51.847Z,21.70
2023-05-12T01:08:21.853Z,21.70
2023-05-12T01:10:49.775Z,21.70
2023-05-12T01:13:17.904Z,21.70
2023-05-12T01:15:49.123Z,21.70
2023-05-12T01:18:22.042Z,21.70
2023-05-12T01:20:51.162Z,21.70
2023-05-12T01:23:21.307Z,21.70
2023-05-12T01:25:51.303Z,21.60
2023-05-12T01:28:20.732Z,21.70
2023-05-12T01:30:50.188Z,21.60
2023-05-12T01:33:18.447Z,21.60
2023-05-12T01:35:47.439Z,21.60
2023-05-12T01:38:15.595Z,21.60
2023-05-12T01:40:43.758Z,21.60
2023-05-12T01:43:11.933Z,21.60
2023-05-12T01:45:41.400Z,21.60
2023-05-12T01:48:09.535Z,21.60
2023-05-12T01:50:37.788Z,21.60
2023-05-12T01:53:05.929Z,21.50
2023-05-12T01:55:34.542Z,21.50
2023-05-12T01:58:02.664Z,21.50
2023-05-12T02:00:30.795Z,21.50
2023-05-12T02:03:00.452Z,21.50
2023-05-12T02:05:28.675Z,21.50
2023-05-12T02:07:56.813Z,21.50
2023-05-12T02:10:24.934Z,21.50
2023-05-12T02:12:53.078Z,21.50
2023-05-12T02:15:21.669Z,21.50
2023-05-12T02:17:53.932Z,21.40
2023-05-12T02:20:23.563Z,21.50
2023-05-12T02:22:51.672Z,21.40
2023-05-12T02:25:19.873Z,21.40
2023-05-12T02:27:48.046Z,21.40
2023-05-12T02:30:16.310Z,21.40
2023-05-12T02:32:44.449Z,21.40
2023-05-12T02:35:12.626Z,21.40
2023-05-12T02:37:42.200Z,21.40
2023-05-12T02:40:11.338Z,21.40
2023-05-12T02:42:40.351Z,21.40
2023-05-12T02:45:10.266Z,21.40
2023-05-12T02:47:38.305Z,21.40
2023-05-12T02:50:07.539Z,21.30
2023-05-12T02:52:35.704Z,21.30
2023-05-12T02:55:05.605Z,21.30
2023-05-12T02:57:34.182Z,21.30
2023-05-12T03:00:04.644Z,21.30
2023-05-12T03:02:32.955Z,21.30
2023-05-12T03:05:01.172Z,21.30
2023-05-12T03:07:29.401Z,21.30
2023-05-12T03:09:58.516Z,21.30
2023-05-12T03:12:29.367Z,21.30
2023-05-12T03:14:57.528Z,21.30
2023-05-12T03:17:25.737Z,21.20
2023-05-12T03:19:53.915Z,21.20
2023-05-12T03:22:22.159Z,21.20
2023-05-12T03:24:50.315Z,21.20
2023-05-12T03:27:18.501Z,21.20
2023-05-12T03:29:47.987Z,21.20
2023-05-12T03:32:16.772Z,21.20
2023-05-12T03:34:44.923Z,21.20
2023-05-12T03:37:13.062Z,21.20
2023-05-12T03:39:41.234Z,21.20
2023-05-12T03:42:09.517Z,21.20
2023-05-12T03:44:37.679Z,21.20
2023-05-12T03:47:07.781Z,21.20
2023-05-12T03:49:36.022Z,21.20
2023-05-12T03:52:04.229Z,21.20
2023-05-12T03:54:32.409Z,21.20
2023-05-12T03:57:00.551Z,21.20
2023-05-12T03:59:31.429Z,21.20
2023-05-12T04:01:59.701Z,21.20
2023-05-12T04:04:29.315Z,21.20
2023-05-12T04:06:57.539Z,21.20
2023-05-12T04:09:25.689Z,21.20
2023-05-12T04:11:53.887Z,21.20
2023-05-12T04:14:31.881Z,21.30
2023-05-12T04:17:08.131Z,21.30
2023-05-12T04:19:37.645Z,21.30
2023-05-12T04:22:06.181Z,21.30
2023-05-12T04:24:34.290Z,21.40
2023-05-12T04:27:02.431Z,21.40
2023-05-12T04:29:30.531Z,21.40
2023-05-12T04:32:00.086Z,21.40
2023-05-12T04:34:28.263Z,21.40
2023-05-12T04:36:57.830Z,21.40
2023-05-12T04:39:25.952Z,21.40
2023-05-12T04:41:54.111Z,21.50
2023-05-12T04:44:22.560Z,21.50
2023-05-12T04:46:53.476Z,21.50
2023-05-12T04:49:21.660Z,21.50
2023-05-12T04:51:49.954Z,21.60
2023-05-12T04:54:19.488Z,21.50
2023-05-12T04:56:47.606Z,21.60
2023-05-12T04:59:16.534Z,21.60
2023-05-12T05:01:44.812Z,21.70
2023-05-12T05:04:12.991Z,21.70
2023-05-12T05:06:41.122Z,21.80
2023-05-12T05:09:09.300Z,21.90
2023-05-12T05:11:38.903Z,21.90
2023-05-12T05:14:07.066Z,21.90
2023-05-12T05:16:35.702Z,21.90
2023-05-12T05:19:06.457Z,21.90
2023-05-12T05:21:35.653Z,21.90
2023-05-12T05:24:03.845Z,21.90
2023-05-12T05:26:32.035Z,21.90
2023-05-12T05:29:02.285Z,22.00
2023-05-12T05:31:30.440Z,21.90
2023-05-12T05:33:58.614Z,22.00
2023-05-12T05:36:27.337Z,22.00
2023-05-12T05:38:55.487Z,22.10
2023-05-12T05:41:23.781Z,22.20
2023-05-12T05:43:51.948Z,22.30
2023-05-12T05:46:21.500Z,22.30
2023-05-12T05:48:49.666Z,22.30
2023-05-12T05:51:17.814Z,22.40
2023-05-12T05:53:45.909Z,22.40
2023-05-12T05:56:14.078Z,22.50
2023-05-12T05:58:42.205Z,22.50
2023-05-12T06:01:10.367Z,22.60
2023-05-12T06:03:39.980Z,22.60
2023-05-12T06:06:08.425Z,22.70
2023-05-12T06:08:36.622Z,22.70
2023-05-12T06:11:05.053Z,22.80
2023-05-12T06:13:33.171Z,22.80
2023-05-12T06:16:01.321Z,22.90
2023-05-12T06:18:29.496Z,22.90
2023-05-12T06:20:59.071Z,23.00
2023-05-12T06:23:27.388Z,23.00
2023-05-12T06:25:55.533Z,23.10
2023-05-12T06:28:23.687Z,23.10
2023-05-12T06:30:51.798Z,23.20
2023-05-12T06:33:19.936Z,23.20
2023-05-12T06:35:48.491Z,23.30
2023-05-12T06:38:18.127Z,23.40
2023-05-12T06:40:46.242Z,23.40
2023-05-12T06:43:14.947Z,23.50
2023-05-12T06:45:43.130Z,23.60
2023-05-12T06:48:11.971Z,23.60
2023-05-12T06:50:40.220Z,23.70
2023-05-12T06:53:08.356Z,23.80
2023-05-12T06:55:37.879Z,23.90
2023-05-12T06:58:06.060Z,23.90
2023-05-12T07:00:34.254Z,24.00
2023-05-12T07:03:02.402Z,24.10
2023-05-12T07:05:30.794Z,24.10
2023-05-12T07:07:59.300Z,24.20
2023-05-12T07:10:27.751Z,24.20
2023-05-12T07:12:57.241Z,24.20
2023-05-12T07:15:25.497Z,24.30
2023-05-12T07:17:55.461Z,24.40
2023-05-12T07:20:23.933Z,24.50
2023-05-12T07:22:52.545Z,24.60
2023-05-12T07:25:21.104Z,24.60
2023-05-12T07:27:49.961Z,24.70
2023-05-12T07:30:20.084Z,24.70
2023-05-12T07:32:48.230Z,24.70
2023-05-12T07:35:16.433Z,24.70
2023-05-12T07:37:44.560Z,24.70
2023-05-12T07:40:13.272Z,24.80
2023-05-12T07:42:41.538Z,24.80
2023-05-12T07:45:10.450Z,24.80
2023-05-12T07:47:40.104Z,24.90
2023-05-12T07:50:08.727Z,24.90
2023-05-12T07:52:37.318Z,25.00
2023-05-12T07:55:05.851Z,25.10
2023-05-12T07:57:34.022Z,25.20
2023-05-12T08:00:02.172Z,25.30
2023-05-12T08:02:30.395Z,25.30
2023-05-12T08:04:59.947Z,25.50
2023-05-12T08:07:28.116Z,25.60
2023-05-12T08:09:56.313Z,25.70
2023-05-12T08:12:24.501Z,25.80
2023-05-12T08:14:52.666Z,25.80
2023-05-12T08:17:20.955Z,25.90
2023-05-12T08:19:49.146Z,26.10
2023-05-12T08:22:18.951Z,26.20
2023-05-12T08:24:47.512Z,26.20
2023-05-12T08:27:15.672Z,26.40
2023-05-12T08:29:43.904Z,26.50
2023-05-12T08:32:12.111Z,26.60
2023-05-12T08:34:40.373Z,26.80
2023-05-12T08:37:08.512Z,27.00
2023-05-12T08:39:38.334Z,27.20
2023-05-12T08:42:17.451Z,27.40
2023-05-12T08:44:45.917Z,27.60
2023-05-12T08:47:14.587Z,27.80
2023-05-12T08:49:46.980Z,28.00
2023-05-12T08:52:21.938Z,28.20
2023-05-12T08:54:56.318Z,28.60
2023-05-12T08:57:27.397Z,28.80
2023-05-12T08:59:59.506Z,29.10
2023-05-12T09:02:41.033Z,29.30
2023-05-12T09:05:13.368Z,29.50
2023-05-12T09:07:45.593Z,29.80
2023-05-12T09:10:32.729Z,29.90
2023-05-12T09:13:05.573Z,29.90
2023-05-12T09:15:37.419Z,30.20
2023-05-12T09:18:06.030Z,30.80
2023-05-12T09:20:34.848Z,31.40
2023-05-12T09:23:14.530Z,31.80
2023-05-12T09:25:44.332Z,32.10
2023-05-12T09:28:12.521Z,32.30
2023-05-12T09:30:42.588Z,32.70
2023-05-12T09:33:12.590Z,33.10
2023-05-12T09:35:41.770Z,33.40
2023-05-12T09:38:11.270Z,33.80
2023-05-12T09:40:39.618Z,34.20
2023-05-12T09:43:09.805Z,34.60
2023-05-12T09:45:38.978Z,35.20
2023-05-12T09:48:11.999Z,35.60
2023-05-12T09:50:51.206Z,35.90
2023-05-12T09:53:22.999Z,36.00
2023-05-12T09:55:51.460Z,35.90
2023-05-12T09:58:22.126Z,35.50
2023-05-12T10:01:13.511Z,35.30
2023-05-12T10:03:43.674Z,35.20
2023-05-12T10:06:16.181Z,35.10
2023-05-12T10:08:50.103Z,35.20
2023-05-12T10:11:18.648Z,35.10
2023-05-12T10:13:48.618Z,35.10
2023-05-12T10:16:17.643Z,35.00
2023-05-12T10:18:46.681Z,34.70
2023-05-12T10:21:15.198Z,34.60
2023-05-12T10:23:45.192Z,34.80
2023-05-12T10:26:13.883Z,35.30
2023-05-12T10:28:43.028Z,35.80
2023-05-12T10:31:12.609Z,36.20
2023-05-12T10:33:40.754Z,36.30
2023-05-12T10:36:18.567Z,36.60
2023-05-12T10:38:50.212Z,36.90
2023-05-12T10:41:18.743Z,37.10
2023-05-12T10:43:51.724Z,37.20
2023-05-12T10:46:22.549Z,37.50
2023-05-12T10:48:55.899Z,37.70
2023-05-12T10:51:26.511Z,38.00
2023-05-12T10:53:58.169Z,38.80
2023-05-12T10:56:28.315Z,39.30
2023-05-12T10:59:12.980Z,38.80
2023-05-12T11:01:57.465Z,37.60
2023-05-12T11:04:37.701Z,36.70
2023-05-12T11:07:07.926Z,36.20
2023-05-12T11:09:43.275Z,36.00
2023-05-12T11:12:18.968Z,35.90
2023-05-12T11:14:48.206Z,35.90
2023-05-12T11:17:17.802Z,35.80
2023-05-12T11:19:48.079Z,35.70
2023-05-12T11:22:19.227Z,35.70
2023-05-12T11:24:47.956Z,35.70
2023-05-12T11:27:24.092Z,35.40
2023-05-12T11:29:59.418Z,35.10
2023-05-12T11:32:29.986Z,35.00
2023-05-12T11:35:09.817Z,35.00
2023-05-12T11:37:39.277Z,34.80
2023-05-12T11:40:15.661Z,34.60
2023-05-12T11:42:48.337Z,34.60
2023-05-12T11:45:24.747Z,34.70
2023-05-12T11:47:54.775Z,34.80
2023-05-12T11:50:24.880Z,34.70
2023-05-12T11:52:54.496Z,34.50
2023-05-12T11:55:24.571Z,34.40
2023-05-12T11:58:00.457Z,34.30
2023-05-12T12:00:31.093Z,34.20
2023-05-12T12:03:15.061Z,34.60
2023-05-12T12:05:45.967Z,34.70
2023-05-12T12:08:16.254Z,34.80
2023-05-12T12:10:45.872Z,34.70
2023-05-12T12:13:14.649Z,34.40
2023-05-12T12:15:42.837Z,34.20
2023-05-12T12:18:12.474Z,34.00
2023-05-12T12:20:40.695Z,33.70
2023-05-12T12:23:08.885Z,33.60
2023-05-12T12:25:37.394Z,33.50
2023-05-12T12:28:15.089Z,33.50
2023-05-12T12:30:43.297Z,33.50
2023-05-12T12:33:13.061Z,33.50
2023-05-12T12:35:43.794Z,33.50
2023-05-12T12:38:11.932Z,33.50
2023-05-12T12:40:46.574Z,33.40
2023-05-12T12:43:15.105Z,33.30
2023-05-12T12:45:43.235Z,33.20
2023-05-12T12:48:13.041Z,33.20
2023-05-12T12:50:41.336Z,33.20
2023-05-12T12:53:09.822Z,33.30
2023-05-12T12:55:38.013Z,33.50
2023-05-12T12:58:06.196Z,33.60
2023-05-12T13:00:34.547Z,34.10
2023-05-12T13:03:03.253Z,34.10
2023-05-12T13:05:32.832Z,34.10
2023-05-12T13:08:00.985Z,34.40
2023-05-12T13:10:29.241Z,34.80
2023-05-12T13:12:57.376Z,35.50
2023-05-12T13:15:25.952Z,35.90
2023-05-12T13:17:54.448Z,36.10
2023-05-12T13:20:22.863Z,35.80
2023-05-12T13:22:52.622Z,36.10
2023-05-12T13:25:20.946Z,36.70
2023-05-12T13:27:49.334Z,36.40
2023-05-12T13:30:17.535Z,35.90
2023-05-12T13:32:46.870Z,35.40
2023-05-12T13:35:15.036Z,35.00
2023-05-12T13:37:43.203Z,34.40
2023-05-12T13:40:13.715Z,34.10
2023-05-12T13:42:42.019Z,33.80
2023-05-12T13:45:11.414Z,33.60
2023-05-12T13:47:39.604Z,33.40
2023-05-12T13:50:09.094Z,33.20
2023-05-12T13:52:37.503Z,33.00
2023-05-12T13:55:06.246Z,32.90
2023-05-12T13:57:35.848Z,32.70
2023-05-12T14:00:04.618Z,32.60
2023-05-12T14:02:34.353Z,32.50
2023-05-12T14:05:02.631Z,32.50
2023-05-12T14:07:30.816Z,32.40
2023-05-12T14:10:00.445Z,32.30
2023-05-12T14:12:28.753Z,32.30
2023-05-12T14:15:07.329Z,32.20
2023-05-12T14:17:48.085Z,32.20
2023-05-12T14:20:16.359Z,32.20
2023-05-12T14:22:44.537Z,32.20
2023-05-12T14:25:13.022Z,32.10
2023-05-12T14:27:41.142Z,32.10
2023-05-12T14:30:11.779Z,32.00
2023-05-12T14:32:39.973Z,32.00
2023-05-12T14:35:09.576Z,32.10
2023-05-12T14:37:37.794Z,32.00
2023-05-12T14:40:07.357Z,32.00
2023-05-12T14:42:35.509Z,32.00
2023-05-12T14:45:03.864Z,32.00
2023-05-12T14:47:33.404Z,32.00
2023-05-12T14:50:01.659Z,32.00
2023-05-12T14:52:29.791Z,32.10
2023-05-12T14:54:57.951Z,32.30
2023-05-12T14:57:26.232Z,32.80
2023-05-12T14:59:59.063Z,33.10
2023-05-12T15:02:28.994Z,33.20
2023-05-12T15:04:58.549Z,33.20
2023-05-12T15:07:26.754Z,33.10
2023-05-12T15:09:55.129Z,33.10
2023-05-12T15:12:23.351Z,33.10
2023-05-12T15:14:51.631Z,33.10
2023-05-12T15:17:19.927Z,33.20
2023-05-12T15:19:48.070Z,33.50
2023-05-12T15:22:17.601Z,33.90
2023-05-12T15:24:45.732Z,34.10
2023-05-12T15:27:14.020Z,34.30
2023-05-12T15:29:42.646Z,34.70
2023-05-12T15:32:11.261Z,35.00
2023-05-12T15:34:39.482Z,35.30
2023-05-12T15:37:11.683Z,35.50
2023-05-12T15:39:41.247Z,35.70
2023-05-12T15:42:10.690Z,35.80
2023-05-12T15:44:40.573Z,35.70
2023-05-12T15:47:08.749Z,35.70
2023-05-12T15:49:36.892Z,35.30
2023-05-12T15:52:05.501Z,34.80
2023-05-12T15:54:33.659Z,34.30
2023-05-12T15:57:04.065Z,34.20
2023-05-12T15:59:32.322Z,34.20
2023-05-12T16:02:00.500Z,34.20
2023-05-12T16:04:29.836Z,34.00
2023-05-12T16:06:57.989Z,33.70
2023-05-12T16:09:26.625Z,33.80
2023-05-12T16:11:57.383Z,34.00
2023-05-12T16:14:26.955Z,34.00
2023-05-12T16:16:55.107Z,33.90
2023-05-12T16:19:23.409Z,34.00
2023-05-12T16:21:51.562Z,33.90
2023-05-12T16:24:19.785Z,33.80
2023-05-12T16:26:47.926Z,33.70
2023-05-12T16:29:16.068Z,33.60
2023-05-12T16:31:45.652Z,33.50
2023-05-12T16:34:13.800Z,33.40
2023-05-12T16:36:42.022Z,33.30
2023-05-12T16:39:10.941Z,33.20
2023-05-12T16:41:39.181Z,33.10
2023-05-12T16:44:07.564Z,33.00
2023-05-12T16:46:36.149Z,32.80
2023-05-12T16:49:05.931Z,32.70
2023-05-12T16:51:34.154Z,32.60
2023-05-12T16:54:02.723Z,32.60
2023-05-12T16:56:30.898Z,32.40
2023-05-12T16:58:59.001Z,32.40
2023-05-12T17:01:27.172Z,32.40
2023-05-12T17:03:55.504Z,32.30
2023-05-12T17:06:25.227Z,32.30
2023-05-12T17:08:53.395Z,32.30
2023-05-12T17:11:21.651Z,32.20
2023-05-12T17:13:49.872Z,31.80
2023-05-12T17:16:18.142Z,31.50
2023-05-12T17:21:17.755Z,31.10
2023-05-12T17:23:47.325Z,30.80
2023-05-12T17:26:15.814Z,30.80
2023-05-12T17:28:43.976Z,30.90
2023-05-12T17:31:12.204Z,31.00
2023-05-12T17:33:40.402Z,31.10
2023-05-12T17:36:12.878Z,31.20
2023-05-12T17:38:41.848Z,31.20
2023-05-12T17:41:11.458Z,31.20
2023-05-12T17:43:39.613Z,31.20
2023-05-12T17:46:09.113Z,31.20
2023-05-12T17:48:38.858Z,31.20
2023-05-12T17:51:07.553Z,31.10
2023-05-12T17:53:35.827Z,31.10
2023-05-12T17:56:04.049Z,31.00
2023-05-12T17:58:33.772Z,31.00
2023-05-12T18:01:01.977Z,31.00
2023-05-12T18:03:30.283Z,30.90
2023-05-12T18:05:58.516Z,30.90
2023-05-12T18:08:27.283Z,30.80
2023-05-12T18:10:55.486Z,30.70
2023-05-12T18:13:23.644Z,30.70
2023-05-12T18:15:53.146Z,30.60
2023-05-12T18:18:21.428Z,30.50
2023-05-12T18:20:49.631Z,30.40
2023-05-12T18:23:17.787Z,30.30
2023-05-12T18:25:46.960Z,30.20
2023-05-12T18:28:15.124Z,30.20
2023-05-12T18:30:43.304Z,30.10
2023-05-12T18:33:12.854Z,30.00
2023-05-12T18:35:41.014Z,29.90
2023-05-12T18:38:09.177Z,29.80
2023-05-12T18:40:37.418Z,29.80
2023-05-12T18:43:05.566Z,29.70
2023-05-12T18:45:33.753Z,29.60
2023-05-12T18:48:01.911Z,29.50
2023-05-12T18:50:31.456Z,29.40
2023-05-12T18:52:59.373Z,29.40
2023-05-12T18:55:27.623Z,29.30
2023-05-12T18:57:55.805Z,29.20
2023-05-12T19:00:26.154Z,29.20
2023-05-12T19:02:54.653Z,29.10
2023-05-12T19:05:23.076Z,29.10
2023-05-12T19:07:52.911Z,29.00
2023-05-12T19:10:20.847Z,29.00
2023-05-12T19:12:50.985Z,28.80
2023-05-12T19:15:19.394Z,28.80
2023-05-12T19:17:47.751Z,28.70
2023-05-12T19:20:18.113Z,28.60
2023-05-12T19:22:46.760Z,28.60
2023-05-12T19:25:17.979Z,28.50
2023-05-12T19:27:46.320Z,28.50
2023-05-12T19:30:15.894Z,28.40
2023-05-12T19:32:46.066Z,28.30
2023-05-12T19:35:16.018Z,28.30
2023-05-12T19:37:44.486Z,28.20
2023-05-12T19:40:13.176Z,28.10
2023-05-12T19:42:45.307Z,28.10
2023-05-12T19:45:14.972Z,28.00
2023-05-12T19:47:43.063Z,28.00
2023-05-12T19:50:11.821Z,28.00
2023-05-12T19:52:39.973Z,27.90
2023-05-12T19:55:09.621Z,27.90
2023-05-12T19:57:38.277Z,27.80
2023-05-12T20:00:09.304Z,27.80
2023-05-12T20:02:37.659Z,27.70
2023-05-12T20:05:07.077Z,27.60
2023-05-12T20:07:35.218Z,27.60
2023-05-12T20:10:03.708Z,27.60
2023-05-12T20:12:31.811Z,27.50
2023-05-12T20:14:59.969Z,27.50
2023-05-12T20:17:29.511Z,27.40
2023-05-12T20:19:57.440Z,27.20
2023-05-12T20:22:26.073Z,26.90
2023-05-12T20:24:54.213Z,26.80
2023-05-12T20:27:22.361Z,26.80
2023-05-12T20:29:50.667Z,26.80
2023-05-12T20:32:18.824Z,26.90
2023-05-12T20:34:48.355Z,26.80
2023-05-12T20:37:17.391Z,26.90
2023-05-12T20:39:45.628Z,26.90
2023-05-12T20:42:15.446Z,26.90
2023-05-12T20:44:43.575Z,26.80
2023-05-12T20:47:12.053Z,26.80
2023-05-12T20:49:40.986Z,26.80
2023-05-12T20:52:10.508Z,26.80
2023-05-12T20:54:38.748Z,26.70
2023-05-12T20:57:07.327Z,26.70
2023-05-12T20:59:35.464Z,26.70
2023-05-12T21:02:03.705Z,26.70
2023-05-12T21:04:31.889Z,26.60
2023-05-12T21:07:00.240Z,26.60
2023-05-12T21:09:29.744Z,26.60
2023-05-12T21:11:58.661Z,26.50
2023-05-12T21:14:26.806Z,26.50
2023-05-12T21:16:55.045Z,26.50
2023-05-12T21:19:23.338Z,26.50
2023-05-12T21:21:51.500Z,26.50
2023-05-12T21:24:19.646Z,26.40
2023-05-12T21:26:49.165Z,26.40
2023-05-12T21:29:17.772Z,26.40
2023-05-12T21:31:47.443Z,26.30
2023-05-12T21:34:15.744Z,26.30
2023-05-12T21:36:43.899Z,26.10
2023-05-12T21:39:12.177Z,25.90
2023-05-12T21:41:44.996Z,25.90
2023-05-12T21:44:41.184Z,25.90
2023-05-12T21:47:09.354Z,25.90
2023-05-12T21:49:37.628Z,25.90
2023-05-12T21:52:06.580Z,25.90
2023-05-12T21:54:34.748Z,25.90
2023-05-12T21:57:02.928Z,25.90
2023-05-12T21:59:32.442Z,25.90
2023-05-12T22:02:00.713Z,25.90
2023-05-12T22:04:28.862Z,25.90
2023-05-12T22:06:57.024Z,25.80
2023-05-12T22:09:25.157Z,25.80
2023-05-12T22:11:53.316Z,25.80
2023-05-12T22:14:21.930Z,25.80
2023-05-12T22:16:51.552Z,25.80
2023-05-12T22:19:19.699Z,25.80
2023-05-12T22:21:47.983Z,25.70
2023-05-12T22:24:16.522Z,25.70
2023-05-12T22:26:44.659Z,25.60
2023-05-12T22:29:12.844Z,25.60
2023-05-12T22:31:41.258Z,25.60
2023-05-12T22:34:10.940Z,25.60
2023-05-12T22:36:38.889Z,25.50
2023-05-12T22:39:07.032Z,25.50
2023-05-12T22:41:35.159Z,25.50
2023-05-12T22:44:03.326Z,25.50
2023-05-12T22:46:31.599Z,25.50
2023-05-12T22:48:59.787Z,25.40
2023-05-12T22:51:29.359Z,25.40
2023-05-12T22:53:57.495Z,25.30
2023-05-12T22:56:25.635Z,25.30
2023-05-12T22:58:53.815Z,25.30
2023-05-12T23:01:22.010Z,25.30
2023-05-12T23:03:50.247Z,25.30
2023-05-12T23:06:18.470Z,25.20
2023-05-12T23:08:48.187Z,25.20
2023-05-12T23:11:16.158Z,25.20
2023-05-12T23:13:44.344Z,25.10
2023-05-12T23:16:12.538Z,25.10
2023-05-12T23:18:40.748Z,25.10
2023-05-12T23:21:08.921Z,25.10
2023-05-12T23:23:37.091Z,25.00
2023-05-12T23:26:06.726Z,25.00
2023-05-12T23:28:34.836Z,25.00
2023-05-12T23:31:03.387Z,24.90
2023-05-12T23:33:31.744Z,24.90
2023-05-12T23:36:00.077Z,24.90
2023-05-12T23:38:28.300Z,24.90
2023-05-12T23:40:56.653Z,24.90
2023-05-12T23:43:27.006Z,24.90
2023-05-12T23:45:55.347Z,24.80
2023-05-12T23:48:23.586Z,24.80
2023-05-12T23:50:51.980Z,24.80
2023-05-12T23:53:20.218Z,24.80
2023-05-12T23:55:48.379Z,24.80
2023-05-12T23:58:16.592Z,24.70
